Time;durP1;ratioP1;P1;durP2;ratioP2;P2;SDS_P1;SDS_P2;PMS_P1;PMS_P2;Temp;Humidity;BMP_temperature;BMP_pressure;BME280_temperature;BME280_humidity;BME280_pressure;Samples;Min_cycle;Max_cycle;Signal;HPM_P1;HPM_P2
2022/07/21 00:00:14;;;;;;;15.30;10.13;;;23.70;51.20;;;;;;5110961;28;20949;-60
2022/07/21 00:02:42;;;;;;;10.27;9.30;;;23.70;51.30;;;;;;5113458;28;20444;-60
2022/07/21 00:05:10;;;;;;;11.97;10.20;;;23.70;51.30;;;;;;5113278;28;21070;-60
2022/07/21 00:07:37;;;;;;;11.53;10.20;;;23.70;51.30;;;;;;5113540;28;20531;-60
2022/07/21 00:10:05;;;;;;;10.60;9.53;;;23.70;51.50;;;;;;5113822;28;20449;-61
2022/07/21 00:12:34;;;;;;;11.13;9.93;;;23.70;51.70;;;;;;5115213;28;20524;-60
2022/07/21 00:15:02;;;;;;;16.10;8.93;;;23.60;52.00;;;;;;5095873;28;20534;-61
2022/07/21 00:17:30;;;;;;;9.53;8.73;;;23.70;52.30;;;;;;5094179;28;20533;-59
2022/07/21 00:19:57;;;;;;;11.50;9.20;;;23.60;52.60;;;;;;5108350;28;20440;-61
2022/07/21 00:22:24;;;;;;;10.33;8.77;;;23.50;53.00;;;;;;5094497;28;20511;-61
2022/07/21 00:24:52;;;;;;;11.47;9.50;;;23.50;53.30;;;;;;5106038;28;20879;-61
2022/07/21 00:27:19;;;;;;;10.53;8.20;;;23.50;53.60;;;;;;5113067;28;20456;-59
2022/07/21 00:29:48;;;;;;;10.10;8.97;;;23.40;53.80;;;;;;5113460;28;20513;-60
2022/07/21 00:32:15;;;;;;;10.83;8.53;;;23.50;54.10;;;;;;5112964;28;20480;-59
2022/07/21 00:34:43;;;;;;;12.93;8.50;;;23.40;54.20;;;;;;5114680;28;20525;-60
2022/07/21 00:37:11;;;;;;;9.50;8.50;;;23.40;54.40;;;;;;5116797;27;20488;-59
2022/07/21 00:39:38;;;;;;;10.03;8.43;;;23.40;54.60;;;;;;5110159;27;20445;-61
2022/07/21 00:42:06;;;;;;;11.20;8.27;;;23.30;54.70;;;;;;5096238;28;20441;-60
2022/07/21 00:44:33;;;;;;;11.30;10.20;;;23.30;54.90;;;;;;5101313;28;20460;-60
2022/07/21 00:47:02;;;;;;;14.17;9.57;;;23.30;55.00;;;;;;5116488;28;20509;-60
2022/07/21 00:49:29;;;;;;;9.80;7.73;;;23.20;55.30;;;;;;5116275;28;20532;-60
2022/07/21 00:51:56;;;;;;;10.70;8.00;;;23.20;55.40;;;;;;5114246;28;20559;-60
2022/07/21 00:54:23;;;;;;;14.33;8.93;;;23.20;55.70;;;;;;5116613;28;20460;-60
2022/07/21 00:56:51;;;;;;;10.37;8.37;;;23.20;55.80;;;;;;5116235;28;20448;-59
2022/07/21 00:59:18;;;;;;;9.03;8.13;;;23.20;55.90;;;;;;5116251;28;20497;-60
2022/07/21 01:01:45;;;;;;;10.40;8.00;;;23.20;56.00;;;;;;5116219;28;20445;-60
2022/07/21 01:04:14;;;;;;;9.83;8.33;;;23.20;56.30;;;;;;5116172;28;20469;-60
2022/07/21 01:06:41;;;;;;;9.63;8.73;;;23.20;56.50;;;;;;5106461;28;20945;-60
2022/07/21 01:09:10;;;;;;;8.13;7.43;;;23.20;57.30;;;;;;5104267;28;20453;-60
2022/07/21 01:11:38;;;;;;;11.10;7.90;;;23.10;57.40;;;;;;5115619;28;20476;-60
2022/07/21 01:14:06;;;;;;;10.90;8.53;;;23.10;58.20;;;;;;5106974;28;20552;-61
2022/07/21 01:16:33;;;;;;;11.50;8.03;;;23.00;59.10;;;;;;5095152;28;20445;-60
2022/07/21 01:19:01;;;;;;;8.97;6.50;;;23.00;60.40;;;;;;5096646;28;20503;-59
2022/07/21 01:21:35;;;;;;;7.80;6.50;;;23.00;62.80;;;;;;5115723;28;20437;-61
2022/07/21 01:24:04;;;;;;;7.00;6.30;;;22.90;64.90;;;;;;5117817;28;20464;-61
2022/07/21 01:26:32;;;;;;;6.13;5.43;;;22.90;67.50;;;;;;5116111;28;20514;-60
2022/07/21 01:28:59;;;;;;;6.30;5.23;;;22.80;71.10;;;;;;5114784;28;20532;-60
2022/07/21 01:31:27;;;;;;;4.97;4.47;;;22.80;74.50;;;;;;5095917;28;20892;-60
2022/07/21 01:33:54;;;;;;;6.00;4.90;;;22.70;78.10;;;;;;5096028;28;20457;-60
2022/07/21 01:36:22;;;;;;;5.80;5.20;;;22.70;81.80;;;;;;5115868;28;20439;-60
2022/07/21 01:41:36;;;;;;;3.83;3.53;;;22.60;85.90;;;;;;5115602;28;20405;-60
2022/07/21 01:44:07;;;;;;;5.80;4.30;;;22.60;87.30;;;;;;5115505;28;20514;-60
2022/07/21 01:46:37;;;;;;;3.97;3.67;;;22.60;88.40;;;;;;5115610;28;20469;-60
2022/07/21 01:49:04;;;;;;;6.57;3.60;;;22.60;88.90;;;;;;5112061;28;20448;-60
2022/07/21 01:51:31;;;;;;;3.77;3.00;;;22.60;89.60;;;;;;5094890;28;20559;-60
2022/07/21 01:54:00;;;;;;;3.27;2.97;;;22.60;90.00;;;;;;5094596;28;20837;-61
2022/07/21 01:56:28;;;;;;;4.53;3.27;;;22.50;90.20;;;;;;5094837;28;20446;-60
2022/07/21 01:58:57;;;;;;;3.40;3.10;;;22.50;90.30;;;;;;5094527;28;20442;-59
2022/07/21 02:01:26;;;;;;;10.70;3.90;;;22.50;90.40;;;;;;5094859;28;20495;-60
2022/07/21 02:03:54;;;;;;;3.20;2.63;;;22.50;90.80;;;;;;5095224;28;20878;-60
2022/07/21 02:06:22;;;;;;;3.47;2.83;;;22.50;91.10;;;;;;5094394;28;20928;-60
2022/07/21 02:08:49;;;;;;;2.63;2.37;;;22.50;91.40;;;;;;5096697;28;21004;-60
2022/07/21 02:11:18;;;;;;;3.30;3.00;;;22.50;91.40;;;;;;5114995;28;20564;-59
2022/07/21 02:13:46;;;;;;;3.47;2.90;;;22.50;91.50;;;;;;5114809;28;20564;-60
2022/07/21 02:16:14;;;;;;;2.93;2.57;;;22.50;91.60;;;;;;5114806;28;20445;-60
2022/07/21 02:18:42;;;;;;;4.33;3.20;;;22.50;92.30;;;;;;5096776;28;20478;-60
2022/07/21 02:21:09;;;;;;;3.50;3.20;;;22.30;93.00;;;;;;5094230;28;20469;-60
2022/07/21 02:23:37;;;;;;;3.73;3.17;;;22.10;94.20;;;;;;5110793;28;20876;-60
2022/07/21 02:26:04;;;;;;;4.60;3.83;;;21.90;95.70;;;;;;5112935;28;20546;-60
2022/07/21 02:28:33;;;;;;;6.07;3.83;;;21.70;96.70;;;;;;5114999;28;20488;-59
2022/07/21 02:31:00;;;;;;;7.80;3.80;;;21.60;97.70;;;;;;5114580;28;20863;-60
2022/07/21 02:33:28;;;;;;;4.43;3.77;;;21.60;98.00;;;;;;5114866;28;20463;-60
2022/07/21 02:35:55;;;;;;;5.00;4.57;;;21.60;98.70;;;;;;5115879;28;20442;-60
2022/07/21 02:38:22;;;;;;;5.90;5.03;;;21.50;99.10;;;;;;5114614;28;20495;-60
2022/07/21 02:40:49;;;;;;;6.43;5.40;;;21.40;99.50;;;;;;5097616;28;21022;-61
2022/07/21 02:43:17;;;;;;;6.17;5.30;;;21.30;99.90;;;;;;5093719;28;20918;-61
2022/07/21 02:45:45;;;;;;;5.80;5.30;;;21.10;99.90;;;;;;5093642;28;20450;-61
2022/07/21 02:48:14;;;;;;;4.80;4.40;;;21.00;99.90;;;;;;5109349;28;20457;-61
2022/07/21 02:50:43;;;;;;;7.40;5.50;;;20.90;99.90;;;;;;5114154;28;20507;-61
2022/07/21 02:53:12;;;;;;;5.43;4.93;;;20.80;99.90;;;;;;5098508;28;20442;-61
2022/07/21 02:55:40;;;;;;;6.33;5.63;;;20.80;99.90;;;;;;5093459;28;20442;-61
2022/07/21 02:58:10;;;;;;;6.67;5.30;;;20.80;99.90;;;;;;5093079;28;20443;-60
2022/07/21 03:00:38;;;;;;;8.33;6.10;;;20.80;99.90;;;;;;5093564;28;20491;-60
2022/07/21 03:03:07;;;;;;;8.30;6.90;;;20.80;99.90;;;;;;5093813;28;20500;-60
2022/07/21 03:05:36;;;;;;;8.77;6.50;;;20.80;99.90;;;;;;5093761;28;20468;-60
2022/07/21 03:08:04;;;;;;;7.80;7.10;;;20.80;99.90;;;;;;5094727;28;20468;-60
2022/07/21 03:10:32;;;;;;;8.57;7.57;;;20.70;99.90;;;;;;5093497;28;20438;-60
2022/07/21 03:12:59;;;;;;;9.33;8.37;;;20.80;99.90;;;;;;5108158;28;20513;-60
2022/07/21 03:15:27;;;;;;;11.27;8.53;;;20.80;99.90;;;;;;5113806;28;20537;-60
2022/07/21 03:17:54;;;;;;;12.63;8.50;;;20.80;99.90;;;;;;5110406;28;20506;-60
2022/07/21 03:20:25;;;;;;;10.77;9.77;;;20.80;99.90;;;;;;5093531;28;20449;-60
2022/07/21 03:22:52;;;;;;;12.70;10.07;;;20.80;99.90;;;;;;5092976;28;20476;-61
2022/07/21 03:25:20;;;;;;;13.23;11.83;;;20.80;99.90;;;;;;5094294;28;20859;-61
2022/07/21 03:27:48;;;;;;;12.93;11.27;;;20.80;99.90;;;;;;5092747;28;20957;-61
2022/07/21 03:30:17;;;;;;;13.30;12.00;;;20.80;99.90;;;;;;5093272;28;20857;-61
2022/07/21 03:32:44;;;;;;;12.70;11.30;;;20.80;99.90;;;;;;5101988;28;20555;-61
2022/07/21 03:35:13;;;;;;;12.40;11.20;;;20.80;99.90;;;;;;5113461;28;20561;-60
2022/07/21 03:37:45;;;;;;;14.67;11.10;;;20.90;99.90;;;;;;5101554;28;20567;-61
2022/07/21 03:40:15;;;;;;;14.13;12.10;;;20.90;99.90;;;;;;5107905;28;20469;-61
2022/07/21 03:42:42;;;;;;;15.50;11.73;;;20.90;99.90;;;;;;5101078;28;20529;-61
2022/07/21 03:45:11;;;;;;;18.50;12.37;;;20.90;99.90;;;;;;5092954;28;20829;-61
2022/07/21 03:47:38;;;;;;;12.17;10.93;;;21.00;99.90;;;;;;5092954;28;20464;-61
2022/07/21 03:50:07;;;;;;;12.90;11.47;;;21.10;99.90;;;;;;5092613;28;20495;-61
2022/07/21 03:52:34;;;;;;;13.33;12.03;;;21.10;99.90;;;;;;5092933;28;20471;-61
2022/07/21 03:55:09;;;;;;;12.00;10.80;;;21.10;99.90;;;;;;5093631;28;20497;-61
2022/07/21 03:57:38;;;;;;;12.43;11.10;;;21.20;99.90;;;;;;5092899;28;20515;-60
2022/07/21 04:00:10;;;;;;;11.53;9.50;;;21.20;99.90;;;;;;5095819;28;20512;-61
2022/07/21 04:02:37;;;;;;;11.97;10.77;;;21.20;99.90;;;;;;5113169;28;20749;-60
2022/07/21 04:05:05;;;;;;;12.13;10.20;;;21.20;99.90;;;;;;5112742;28;20510;-60
2022/07/21 04:10:03;;;;;;;14.27;10.70;;;21.20;99.90;;;;;;5111241;27;20613;-61
2022/07/21 04:12:30;;;;;;;13.57;11.00;;;21.10;99.90;;;;;;5110468;28;20443;-61
2022/07/21 04:14:58;;;;;;;14.90;11.20;;;21.10;99.90;;;;;;5109655;28;20580;-60
2022/07/21 04:17:25;;;;;;;11.60;10.40;;;21.00;99.90;;;;;;5111788;28;20503;-60
2022/07/21 04:19:52;;;;;;;12.23;10.93;;;20.80;99.90;;;;;;5111145;28;20438;-60
2022/07/21 04:22:19;;;;;;;13.30;11.43;;;20.70;99.90;;;;;;5109118;28;20491;-60
2022/07/21 04:24:47;;;;;;;13.63;11.50;;;20.70;99.90;;;;;;5109245;28;20633;-61
2022/07/21 04:27:15;;;;;;;13.43;10.70;;;20.70;99.90;;;;;;5099198;28;20563;-60
2022/07/21 04:29:43;;;;;;;15.27;13.13;;;20.80;99.90;;;;;;5099939;28;20469;-60
2022/07/21 04:32:10;;;;;;;16.30;12.17;;;20.90;99.90;;;;;;5097687;28;20520;-61
2022/07/21 04:34:37;;;;;;;15.47;12.70;;;21.00;99.90;;;;;;5090117;28;20459;-61
2022/07/21 04:37:04;;;;;;;14.27;10.87;;;21.00;99.90;;;;;;5104452;28;20442;-60
2022/07/21 04:39:32;;;;;;;12.57;11.27;;;21.10;99.90;;;;;;5110125;28;20450;-61
2022/07/21 04:41:59;;;;;;;12.63;11.33;;;21.10;99.90;;;;;;5096730;28;20447;-61
2022/07/21 04:44:28;;;;;;;12.63;11.30;;;21.10;99.90;;;;;;5102187;28;20502;-61
2022/07/21 04:46:55;;;;;;;12.50;11.00;;;21.10;99.90;;;;;;5090957;28;20475;-61
2022/07/21 04:49:22;;;;;;;13.47;11.57;;;21.10;99.90;;;;;;5098914;28;20517;-61
2022/07/21 04:51:50;;;;;;;11.70;10.50;;;21.10;99.90;;;;;;5105098;28;20443;-61
2022/07/21 04:54:17;;;;;;;10.93;9.83;;;21.20;99.90;;;;;;5109632;28;20594;-61
2022/07/21 04:56:45;;;;;;;13.40;11.40;;;21.20;99.90;;;;;;5109708;28;20473;-61
2022/07/21 04:59:13;;;;;;;11.13;10.00;;;21.30;99.90;;;;;;5109444;28;20995;-60
2022/07/21 05:01:42;;;;;;;11.23;10.13;;;21.30;99.90;;;;;;5089806;28;20848;-61
2022/07/21 05:04:10;;;;;;;12.50;10.33;;;21.40;99.90;;;;;;5096834;28;20465;-60
2022/07/21 05:06:37;;;;;;;10.40;9.30;;;21.40;99.90;;;;;;5109650;28;20487;-61
2022/07/21 05:09:05;;;;;;;11.47;10.27;;;21.50;99.90;;;;;;5109481;28;20555;-60
2022/07/21 05:11:32;;;;;;;10.90;9.80;;;21.50;99.90;;;;;;5109897;28;20456;-59
2022/07/21 05:13:59;;;;;;;11.57;10.30;;;21.50;99.90;;;;;;5109773;28;20516;-60
2022/07/21 05:16:27;;;;;;;10.13;8.40;;;21.60;99.90;;;;;;5109666;28;20472;-60
2022/07/21 05:18:56;;;;;;;10.37;8.50;;;21.60;99.90;;;;;;5109440;28;20439;-60
2022/07/21 05:21:23;;;;;;;9.57;8.47;;;21.50;99.90;;;;;;5096249;28;20443;-60
2022/07/21 05:23:50;;;;;;;10.83;9.00;;;21.40;99.90;;;;;;5095961;28;20816;-59
2022/07/21 05:26:18;;;;;;;10.27;8.90;;;21.40;99.90;;;;;;5096425;28;20497;-60
2022/07/21 05:28:45;;;;;;;10.53;7.57;;;21.30;99.90;;;;;;5096280;28;20843;-60
2022/07/21 05:31:13;;;;;;;9.80;7.93;;;21.20;99.90;;;;;;5096368;28;20474;-59
2022/07/21 05:33:40;;;;;;;8.10;7.27;;;21.20;99.90;;;;;;5095998;28;20471;-60
2022/07/21 05:36:10;;;;;;;9.30;8.30;;;21.30;99.90;;;;;;5095780;28;20448;-60
2022/07/21 05:38:37;;;;;;;10.40;7.00;;;21.30;99.90;;;;;;5095703;28;20444;-60
2022/07/21 05:41:05;;;;;;;7.90;7.10;;;21.40;99.90;;;;;;5095663;28;20443;-60
2022/07/21 05:43:32;;;;;;;8.10;7.30;;;21.40;99.90;;;;;;5095145;28;20494;-60
2022/07/21 05:46:00;;;;;;;8.20;7.00;;;21.50;99.90;;;;;;5095834;28;20502;-60
2022/07/21 05:48:27;;;;;;;8.07;6.27;;;21.50;99.90;;;;;;5095069;28;20475;-59
2022/07/21 05:50:55;;;;;;;6.27;5.50;;;21.50;99.90;;;;;;5095455;28;20947;-60
2022/07/21 05:53:24;;;;;;;7.07;6.37;;;21.60;99.90;;;;;;5095071;28;20479;-59
2022/07/21 05:55:51;;;;;;;6.40;5.80;;;21.60;99.90;;;;;;5095470;28;20451;-59
2022/07/21 05:58:22;;;;;;;6.10;5.50;;;21.60;99.90;;;;;;5095685;28;20448;-59
2022/07/21 06:01:07;;;;;;;6.33;5.57;;;21.60;99.90;;;;;;5094853;28;20947;-60
2022/07/21 06:03:35;;;;;;;6.50;5.97;;;21.60;99.90;;;;;;5075039;28;20549;-60
2022/07/21 06:06:03;;;;;;;7.13;5.13;;;21.60;99.90;;;;;;5077968;28;20507;-61
2022/07/21 06:08:32;;;;;;;6.97;5.30;;;21.70;99.70;;;;;;5082205;28;20483;-61
2022/07/21 06:10:59;;;;;;;9.20;4.90;;;21.80;99.30;;;;;;5078432;28;20457;-62
2022/07/21 06:13:26;;;;;;;8.53;5.87;;;22.00;99.00;;;;;;5089731;28;20891;-60
2022/07/21 06:15:54;;;;;;;6.03;5.43;;;22.10;98.50;;;;;;5082938;28;20469;-61
2022/07/21 06:18:21;;;;;;;6.43;5.13;;;22.30;98.10;;;;;;5074722;28;20450;-59
2022/07/21 06:20:48;;;;;;;7.10;5.30;;;22.40;97.70;;;;;;5084471;28;20506;-61
2022/07/21 06:23:16;;;;;;;6.00;5.50;;;22.50;97.40;;;;;;5073869;28;20518;-61
2022/07/21 06:25:45;;;;;;;6.23;5.63;;;22.60;97.20;;;;;;5072633;28;20470;-61
2022/07/21 06:28:12;;;;;;;7.10;6.50;;;22.70;97.40;;;;;;5074217;28;20474;-60
2022/07/21 06:30:39;;;;;;;6.60;6.00;;;22.70;96.80;;;;;;5072884;28;20558;-61
2022/07/21 06:33:06;;;;;;;6.80;6.20;;;22.80;96.80;;;;;;5088935;28;20465;-61
2022/07/21 06:35:34;;;;;;;7.47;5.90;;;22.80;96.80;;;;;;5085776;28;20508;-60
2022/07/21 06:38:01;;;;;;;7.90;5.00;;;22.80;96.80;;;;;;5090473;28;20469;-60
2022/07/21 06:40:29;;;;;;;6.30;5.57;;;22.80;96.80;;;;;;5089556;28;20949;-60
2022/07/21 06:42:57;;;;;;;6.90;5.60;;;22.80;96.70;;;;;;5077505;28;20524;-60
2022/07/21 06:45:25;;;;;;;6.60;5.87;;;22.80;96.70;;;;;;5082790;28;20489;-61
2022/07/21 06:48:01;;;;;;;5.93;5.43;;;22.80;96.70;;;;;;5073489;28;20566;-60
2022/07/21 06:50:28;;;;;;;7.53;6.20;;;22.90;96.80;;;;;;5072905;28;20525;-59
2022/07/21 06:52:55;;;;;;;6.50;5.90;;;22.90;96.70;;;;;;5073534;28;20533;-60
2022/07/21 06:55:23;;;;;;;5.77;5.17;;;22.90;96.70;;;;;;5071207;28;20490;-62
2022/07/21 06:57:50;;;;;;;6.50;5.83;;;22.90;96.70;;;;;;5079826;28;20904;-60
2022/07/21 07:00:19;;;;;;;6.40;5.60;;;22.90;96.70;;;;;;5092653;28;20481;-61
2022/07/21 07:02:47;;;;;;;5.63;5.13;;;22.80;96.80;;;;;;5084211;28;20497;-60
2022/07/21 07:05:14;;;;;;;6.23;5.03;;;22.70;96.90;;;;;;5076254;28;20594;-60
2022/07/21 07:07:43;;;;;;;4.20;3.90;;;22.70;97.10;;;;;;5093465;28;20449;-60
2022/07/21 07:10:11;;;;;;;4.33;3.90;;;22.70;97.10;;;;;;5082298;28;20475;-59
2022/07/21 07:12:39;;;;;;;3.73;3.43;;;22.70;97.00;;;;;;5091771;28;20465;-61
2022/07/21 07:15:07;;;;;;;3.40;3.10;;;22.70;96.80;;;;;;5091777;28;20512;-59
2022/07/21 07:17:35;;;;;;;7.27;5.70;;;22.80;96.50;;;;;;5085070;28;21035;-59
2022/07/21 07:20:05;;;;;;;4.20;3.13;;;22.80;96.20;;;;;;5073292;28;20492;-59
2022/07/21 07:22:33;;;;;;;6.00;3.30;;;22.90;96.10;;;;;;5073412;28;20942;-60
2022/07/21 07:25:00;;;;;;;3.23;3.03;;;23.00;96.00;;;;;;5073534;28;20820;-61
2022/07/21 07:27:28;;;;;;;3.47;3.17;;;23.20;95.60;;;;;;5072958;28;20507;-60
2022/07/21 07:29:55;;;;;;;3.40;3.10;;;23.30;95.20;;;;;;5073193;28;20953;-60
2022/07/21 07:32:22;;;;;;;4.33;2.90;;;23.40;94.90;;;;;;5073044;28;20443;-60
2022/07/21 07:34:51;;;;;;;2.90;2.50;;;23.30;94.70;;;;;;5073194;28;20537;-61
2022/07/21 07:37:18;;;;;;;2.47;2.23;;;23.30;94.60;;;;;;5072959;28;20530;-59
2022/07/21 07:39:45;;;;;;;2.53;2.33;;;23.10;94.60;;;;;;5073285;28;20478;-61
2022/07/21 07:42:13;;;;;;;6.97;2.50;;;22.90;94.80;;;;;;5073336;28;20520;-59
2022/07/21 07:44:40;;;;;;;2.07;1.90;;;22.60;95.20;;;;;;5073308;28;20527;-61
2022/07/21 07:47:07;;;;;;;2.40;1.90;;;22.50;95.60;;;;;;5073340;28;20449;-60
2022/07/21 07:49:35;;;;;;;2.17;1.97;;;22.40;96.00;;;;;;5073333;28;20570;-60
2022/07/21 07:52:04;;;;;;;2.30;2.10;;;22.30;96.30;;;;;;5075070;28;20512;-61
2022/07/21 07:54:31;;;;;;;2.30;2.10;;;22.10;97.20;;;;;;5075022;28;20473;-62
2022/07/21 07:56:58;;;;;;;2.17;1.97;;;21.90;98.60;;;;;;5074315;28;20442;-62
2022/07/21 07:59:25;;;;;;;2.50;2.30;;;21.60;99.90;;;;;;5072414;28;20531;-61
2022/07/21 08:01:53;;;;;;;4.03;1.80;;;21.50;99.90;;;;;;5072654;28;20991;-60
2022/07/21 08:04:20;;;;;;;2.93;2.43;;;21.30;99.90;;;;;;5072596;28;20558;-60
2022/07/21 08:06:47;;;;;;;1.60;1.40;;;21.20;99.90;;;;;;5072815;28;20448;-61
2022/07/21 08:09:18;;;;;;;1.80;1.20;;;21.10;99.90;;;;;;5072285;28;20483;-60
2022/07/21 08:11:46;;;;;;;1.23;1.13;;;21.00;99.90;;;;;;5072724;28;20477;-60
2022/07/21 08:14:14;;;;;;;2.20;2.00;;;20.90;99.90;;;;;;5072693;28;20642;-61
2022/07/21 08:16:41;;;;;;;2.83;1.80;;;20.90;99.90;;;;;;5072611;28;21006;-60
2022/07/21 08:19:09;;;;;;;1.83;1.50;;;20.80;99.90;;;;;;5072152;28;20448;-61
2022/07/21 08:21:36;;;;;;;1.70;1.50;;;20.80;99.90;;;;;;5072502;28;20475;-60
2022/07/21 08:24:04;;;;;;;1.90;1.70;;;20.90;99.90;;;;;;5072005;28;20566;-60
2022/07/21 08:26:32;;;;;;;1.50;1.40;;;21.00;99.90;;;;;;5072660;28;20444;-60
2022/07/21 08:29:00;;;;;;;4.53;2.13;;;21.20;99.90;;;;;;5072058;28;20483;-59
2022/07/21 08:31:27;;;;;;;1.73;1.63;;;21.30;99.90;;;;;;5072678;28;20494;-60
2022/07/21 08:33:54;;;;;;;3.73;2.60;;;21.40;99.90;;;;;;5072529;28;21046;-60
2022/07/21 08:36:22;;;;;;;2.20;2.00;;;21.60;99.90;;;;;;5073686;28;20449;-60
2022/07/21 08:38:49;;;;;;;1.63;1.53;;;21.90;99.90;;;;;;5072390;28;20501;-61
2022/07/21 08:41:16;;;;;;;1.37;1.27;;;22.30;99.90;;;;;;5071803;28;20454;-61
2022/07/21 08:43:47;;;;;;;2.83;1.90;;;22.60;99.90;;;;;;5072185;28;20498;-61
2022/07/21 08:46:15;;;;;;;1.77;1.67;;;22.80;99.50;;;;;;5072067;28;20435;-60
2022/07/21 08:48:43;;;;;;;2.57;1.87;;;23.10;98.50;;;;;;5072286;28;20559;-60
2022/07/21 08:51:13;;;;;;;2.37;1.63;;;23.50;97.40;;;;;;5072314;28;20952;-61
2022/07/21 08:53:40;;;;;;;1.80;1.70;;;23.80;96.00;;;;;;5072224;28;20506;-60
2022/07/21 08:56:08;;;;;;;2.10;1.90;;;24.00;94.70;;;;;;5074996;28;20527;-61
2022/07/21 08:58:36;;;;;;;2.83;2.07;;;23.70;94.10;;;;;;5076380;28;20482;-61
2022/07/21 09:01:05;;;;;;;1.70;1.60;;;23.60;94.60;;;;;;5075854;28;20547;-60
2022/07/21 09:03:33;;;;;;;2.40;2.20;;;23.70;94.80;;;;;;5075854;28;20468;-60
2022/07/21 09:06:11;;;;;;;2.40;2.20;;;23.80;93.70;;;;;;5075781;28;20448;-61
2022/07/21 09:08:40;;;;;;;2.53;2.33;;;23.90;93.10;;;;;;5076116;28;20521;-60
2022/07/21 09:11:13;;;;;;;3.87;2.90;;;24.00;92.40;;;;;;5075395;28;20513;-60
2022/07/21 09:13:41;;;;;;;3.47;2.93;;;24.10;91.80;;;;;;5075673;28;20548;-60
2022/07/21 09:16:11;;;;;;;3.60;3.40;;;24.00;91.30;;;;;;5075752;28;20452;-60
2022/07/21 09:18:49;;;;;;;4.27;3.87;;;24.00;91.00;;;;;;5075282;28;20449;-61
2022/07/21 09:21:18;;;;;;;4.20;3.80;;;23.90;90.80;;;;;;5075321;28;20420;-61
2022/07/21 09:23:45;;;;;;;4.97;4.57;;;23.70;90.80;;;;;;5075415;28;20468;-61
2022/07/21 09:26:13;;;;;;;5.60;4.50;;;23.50;91.30;;;;;;5075856;28;20489;-59
2022/07/21 09:28:42;;;;;;;5.23;4.73;;;23.40;91.60;;;;;;5075425;28;20512;-60
2022/07/21 09:31:13;;;;;;;6.90;6.30;;;23.30;91.90;;;;;;5075390;28;21020;-60
2022/07/21 09:33:42;;;;;;;7.10;6.50;;;23.20;91.90;;;;;;5075601;28;20466;-60
2022/07/21 09:36:11;;;;;;;8.10;7.30;;;23.00;92.00;;;;;;5075112;28;20547;-60
2022/07/21 09:38:41;;;;;;;7.97;7.17;;;22.90;92.20;;;;;;5075858;28;20542;-60
2022/07/21 09:41:14;;;;;;;8.27;7.57;;;22.70;92.60;;;;;;5075498;28;20514;-59
2022/07/21 09:43:44;;;;;;;7.90;7.20;;;22.60;92.80;;;;;;5075127;28;20664;-61
2022/07/21 09:46:16;;;;;;;8.37;7.67;;;22.60;92.90;;;;;;5074769;28;20553;-61
2022/07/21 09:48:44;;;;;;;7.83;7.00;;;22.70;92.90;;;;;;5075349;28;20853;-61
2022/07/21 09:51:30;;;;;;;7.97;7.17;;;22.80;92.60;;;;;;5074849;28;21080;-61
2022/07/21 09:54:00;;;;;;;8.53;7.77;;;22.80;92.60;;;;;;5075034;28;20499;-59
2022/07/21 09:56:30;;;;;;;8.43;7.67;;;22.90;92.40;;;;;;5074631;28;20860;-60
2022/07/21 09:58:59;;;;;;;8.60;7.73;;;23.10;92.10;;;;;;5074433;28;20444;-60
2022/07/21 10:01:29;;;;;;;9.30;8.33;;;23.30;91.40;;;;;;5074906;28;20792;-60
2022/07/21 10:03:59;;;;;;;9.20;8.10;;;23.60;90.70;;;;;;5074588;28;20937;-60
2022/07/21 10:06:28;;;;;;;8.10;7.50;;;23.70;90.10;;;;;;5074438;28;20455;-59
2022/07/21 10:08:58;;;;;;;9.73;8.83;;;23.90;89.20;;;;;;5074290;28;20459;-59
2022/07/21 10:11:25;;;;;;;8.90;8.10;;;24.20;88.10;;;;;;5074407;28;20477;-60
2022/07/21 10:13:53;;;;;;;8.60;7.70;;;24.40;86.20;;;;;;5073478;28;20480;-60
2022/07/21 10:16:20;;;;;;;9.93;8.00;;;24.60;84.50;;;;;;5093006;28;20579;-60
2022/07/21 10:19:01;;;;;;;8.93;8.13;;;24.70;83.60;;;;;;5093568;28;21010;-60
2022/07/21 10:21:37;;;;;;;8.80;8.03;;;25.00;82.00;;;;;;5094856;28;20422;-60
2022/07/21 10:24:05;;;;;;;8.80;8.10;;;25.40;80.00;;;;;;5094210;28;20499;-59
2022/07/21 10:26:33;;;;;;;8.33;7.00;;;25.80;77.10;;;;;;5094842;28;20474;-60
2022/07/21 10:29:00;;;;;;;7.27;6.70;;;26.00;75.20;;;;;;5094666;28;20441;-59
2022/07/21 10:31:28;;;;;;;8.60;7.80;;;26.30;73.00;;;;;;5094345;28;20532;-60
2022/07/21 10:33:59;;;;;;;8.20;7.40;;;26.70;70.20;;;;;;5084790;28;20868;-60
2022/07/21 10:36:46;;;;;;;7.90;6.77;;;27.00;67.50;;;;;;5094507;28;20540;-60
2022/07/21 10:39:23;;;;;;;8.93;8.13;;;27.20;65.80;;;;;;5093441;28;20823;-60
2022/07/21 10:41:53;;;;;;;8.10;7.40;;;27.20;64.20;;;;;;5085761;28;20458;-60
2022/07/21 10:44:43;;;;;;;7.07;6.50;;;27.20;63.70;;;;;;5076480;28;20516;-60
2022/07/21 10:47:12;;;;;;;8.60;7.77;;;27.40;62.40;;;;;;5078414;28;20850;-61
2022/07/21 10:49:49;;;;;;;8.40;7.60;;;27.60;60.90;;;;;;5073343;28;20528;-59
2022/07/21 10:52:53;;;;;;;7.80;7.10;;;27.70;59.30;;;;;;5076919;28;20454;-61
2022/07/21 10:55:26;;;;;;;8.53;7.80;;;27.90;58.20;;;;;;5087945;28;20456;-59
2022/07/21 10:58:17;;;;;;;7.67;6.97;;;28.00;57.40;;;;;;5080504;28;20487;-60
2022/07/21 11:00:51;;;;;;;8.50;7.80;;;27.90;56.80;;;;;;5077203;28;20444;-60
2022/07/21 11:03:25;;;;;;;7.47;6.87;;;27.50;56.90;;;;;;5089280;28;20523;-58
2022/07/21 11:06:19;;;;;;;7.40;6.80;;;27.20;57.60;;;;;;5075714;28;20958;-60
2022/07/21 11:08:48;;;;;;;7.90;7.10;;;27.00;57.30;;;;;;5092947;28;20967;-61
2022/07/21 11:11:16;;;;;;;9.10;7.87;;;27.10;57.60;;;;;;5080651;28;20486;-61
2022/07/21 11:14:09;;;;;;;7.97;7.17;;;27.50;57.00;;;;;;5087036;28;20565;-61
2022/07/21 11:17:02;;;;;;;8.17;7.47;;;27.70;56.00;;;;;;5079381;28;20868;-61
2022/07/21 11:19:32;;;;;;;8.40;7.63;;;27.80;55.50;;;;;;5072743;28;20453;-61
2022/07/21 11:22:03;;;;;;;8.43;7.33;;;27.50;55.70;;;;;;5072405;28;20461;-60
2022/07/21 11:24:30;;;;;;;7.43;6.80;;;27.50;55.80;;;;;;5072506;28;21113;-60
2022/07/21 11:27:00;;;;;;;7.60;6.93;;;27.50;55.40;;;;;;5072692;28;20529;-59
2022/07/21 11:29:29;;;;;;;8.03;7.23;;;27.60;54.80;;;;;;5089336;28;20940;-61
2022/07/21 11:31:58;;;;;;;8.20;7.40;;;27.70;54.10;;;;;;5092884;28;20476;-60
2022/07/21 11:34:26;;;;;;;7.90;7.20;;;27.80;53.80;;;;;;5084722;28;20470;-61
2022/07/21 11:37:03;;;;;;;7.80;6.50;;;28.10;53.30;;;;;;5085454;28;20836;-61
2022/07/21 11:39:30;;;;;;;7.77;7.10;;;28.30;52.60;;;;;;5091605;28;20461;-61
2022/07/21 11:42:03;;;;;;;7.67;6.97;;;28.50;52.20;;;;;;5079492;28;20527;-61
2022/07/21 11:44:30;;;;;;;9.60;7.10;;;28.50;51.90;;;;;;5088241;28;20883;-61
2022/07/21 11:46:59;;;;;;;6.90;6.40;;;28.80;51.60;;;;;;5091636;28;21006;-61
2022/07/21 11:49:27;;;;;;;7.60;7.00;;;29.20;50.40;;;;;;5078151;28;20464;-62
2022/07/21 11:51:57;;;;;;;9.07;8.27;;;29.50;49.50;;;;;;5072265;28;20485;-62
2022/07/21 11:54:32;;;;;;;7.30;6.73;;;30.00;48.50;;;;;;5079132;28;20973;-62
2022/07/21 11:57:02;;;;;;;6.57;6.00;;;30.50;47.40;;;;;;5072218;28;20512;-61
2022/07/21 11:59:30;;;;;;;6.80;6.20;;;30.80;45.60;;;;;;5073162;28;20490;-61
2022/07/21 12:02:03;;;;;;;6.37;5.63;;;31.00;44.70;;;;;;5086855;28;20998;-62
2022/07/21 12:04:37;;;;;;;6.30;5.80;;;30.90;44.10;;;;;;5089632;28;20554;-61
2022/07/21 12:07:07;;;;;;;6.03;5.53;;;30.70;44.30;;;;;;5086110;28;20461;-60
2022/07/21 12:09:35;;;;;;;6.27;5.70;;;30.60;44.40;;;;;;5087412;28;20470;-61
2022/07/21 12:12:04;;;;;;;6.00;5.60;;;30.40;44.60;;;;;;5072142;28;20484;-61
2022/07/21 12:14:45;;;;;;;6.33;5.83;;;30.10;45.10;;;;;;5082564;28;20474;-60
2022/07/21 12:17:14;;;;;;;7.23;6.63;;;29.80;45.50;;;;;;5084494;28;20457;-60
2022/07/21 12:19:41;;;;;;;6.20;5.70;;;29.50;46.00;;;;;;5073282;28;20467;-60
2022/07/21 12:22:09;;;;;;;6.27;5.50;;;29.40;46.40;;;;;;5079829;28;20513;-61
2022/07/21 12:24:55;;;;;;;5.80;5.40;;;29.20;46.70;;;;;;5076709;28;20552;-61
2022/07/21 12:27:24;;;;;;;5.93;5.43;;;29.20;46.70;;;;;;5073495;28;20973;-61
2022/07/21 12:29:51;;;;;;;6.80;6.20;;;29.20;46.80;;;;;;5073521;28;20531;-61
2022/07/21 12:32:41;;;;;;;5.53;5.03;;;29.20;47.00;;;;;;5081947;28;20519;-61
2022/07/21 12:35:19;;;;;;;6.50;5.90;;;29.00;47.50;;;;;;5095008;28;20478;-61
2022/07/21 12:38:00;;;;;;;7.03;6.43;;;28.50;49.30;;;;;;5087089;28;20510;-60
2022/07/21 12:40:30;;;;;;;7.03;6.30;;;27.80;52.80;;;;;;5085158;28;20505;-60
2022/07/21 12:43:15;;;;;;;7.50;6.77;;;26.80;56.40;;;;;;5095256;28;20964;-61
2022/07/21 12:45:54;;;;;;;8.87;8.07;;;26.10;60.40;;;;;;5094953;28;20513;-60
2022/07/21 12:48:23;;;;;;;6.90;6.30;;;25.80;62.80;;;;;;5092753;28;20493;-61
2022/07/21 12:51:02;;;;;;;6.53;5.93;;;25.70;64.70;;;;;;5076905;28;20481;-60
2022/07/21 12:53:31;;;;;;;6.83;6.27;;;25.70;67.00;;;;;;5091871;28;20510;-61
2022/07/21 12:56:00;;;;;;;6.67;6.00;;;25.70;68.20;;;;;;5079407;28;20459;-60
2022/07/21 12:58:27;;;;;;;7.50;6.80;;;25.80;68.40;;;;;;5091795;28;20984;-60